Rowley, MA

4:48 PM EST on January 24, 2017 (GMT -0500)
MD5181 | | Change Station
Active Advisory: Gale Warning Active Notice: Public Information Statement

Elev 62 ft 42.59 °N, 70.87 °W | Updated 23 minutes ago

Overcast
Overcast
37.0 °F
Feels Like 29 °F
N
11.0
Wind Variable Wind from NE
Gusts 22.0 mph

Today
High -- | Low -- °F
--% Chance of Precip.
Yesterday
High -- | Low -- °F
Precip. -- in
Pressure 29.28 in
Visibility 1.8 miles
Clouds Overcast 500 ft
Windchill 29 °F
Dew Point 36.0 °F
Humidity 96%
Rainfall 1.42 in
Snow Depth Not available.
7:05 AM 4:46 PM
Waning Crescent, 9% visible
SPECI KBVY 242143Z 01018G28KT 1 3/4SM -SN BR OVC005 03/02 A2928 RMK AO2 PK WND 02029/2113 RAB27E34SNB34 P0002 T00280022
Pressure 29.28 in
Visibility 1.8 miles
Clouds Overcast 500 ft
Windchill 29 °F
Dew Point 36.0 °F
Humidity 96%
Rainfall 1.42 in
Snow Depth Not available.
7:05 AM 4:46 PM
Waning Crescent, 9% visible
SPECI KBVY 242143Z 01018G28KT 1 3/4SM -SN BR OVC005 03/02 A2928 RMK AO2 PK WND 02029/2113 RAB27E34SNB34 P0002 T00280022

Get Your Daily Forecast Email!

Thanks for signing up!

Be on the lookout for a verification email in your inbox.

You'll start receiving the daily forecast at 8 AM.

×

10-Day Weather Forecast

Almanac

Astronomy

Jan. 24, 2017 Rise Set
Actual Time
Civil Twilight
Nautical Twilight
Astronomical Twilight
Moon
Length of Visible Light
Length of Day
Tomorrow will be .
, % of the Moon is Illuminated

Today's Extremes

State Highs State Lows

Community

WunderPhotos

Upload Photos

1,962,540 photos uploaded!

WunderBlog® & News

Nearby

Air Quality

  Air Quality AQ Index Pollutant
Not available.

Snow Depth

Station Depth Elevation

Earthquake Activity

City Distance Mag. Time & Date
Minimum magnitude displayed is 2.5.

Coastal Water Temperatures

Place Temperature

Stations

Nearby Weather Stations

Station Location Temp. Windchill Dew Point Humidity Wind Precip. Elev Updated Type
                   

Watches & Warnings

Gale Warning
Issued: 3:50 PM EST Jan. 24, 2017 – National Weather Service

... Gale Warning in effect until 10 PM EST this evening...

The National Weather Service in Taunton has issued a Gale
Warning... which is in effect until 10 PM EST this evening.

* Winds and seas... northeast winds 15 to 25 kt with gusts up to
35 kt. Seas 13 to 18 feet.

Precautionary/preparedness actions...

A Gale Warning means winds of 34 to 47 knots are imminent or
occurring. Operating a vessel in gale conditions requires
experience and properly equipped vessels. It is highly
recommended that mariners without the proper experience seek safe
Harbor prior to the onset of gale conditions.